createdAt,value
2022-10-15T00:02:27.515Z,100228.00
2022-10-15T00:05:30.630Z,100219.06
2022-10-15T00:08:34.001Z,100206.00
2022-10-15T00:11:39.785Z,100194.97
2022-10-15T00:14:42.802Z,100190.56
2022-10-15T00:17:45.780Z,100184.50
2022-10-15T00:20:48.723Z,100167.28
2022-10-15T00:23:51.717Z,100150.94
2022-10-15T00:26:55.995Z,100145.00
2022-10-15T00:30:00.183Z,100133.56
2022-10-15T00:33:03.176Z,100130.28
2022-10-15T00:36:09.088Z,100127.50
2022-10-15T00:39:12.097Z,100124.78
2022-10-15T00:42:17.164Z,100116.78
2022-10-15T00:45:20.596Z,100115.97
2022-10-15T00:48:23.879Z,100107.03
2022-10-15T00:51:33.139Z,100110.72
2022-10-15T00:54:41.158Z,100114.06
2022-10-15T00:57:48.406Z,100112.13
2022-10-15T01:00:51.841Z,100103.31
2022-10-15T01:03:56.683Z,100082.38
2022-10-15T01:06:59.707Z,100075.78
2022-10-15T01:10:03.597Z,100075.50
2022-10-15T01:13:16.470Z,100056.22
2022-10-15T01:16:24.323Z,100052.63
2022-10-15T01:19:52.324Z,100046.75
2022-10-15T01:23:23.654Z,100036.94
2022-10-15T01:27:16.532Z,100026.50
2022-10-15T01:30:24.924Z,100019.63
2022-10-15T01:33:38.154Z,100010.13
2022-10-15T01:36:51.084Z,100003.09
2022-10-15T01:40:00.149Z,100006.53
2022-10-15T01:43:07.675Z,100003.66
2022-10-15T01:46:48.272Z,99990.84
2022-10-15T01:50:00.547Z,99986.16
2022-10-15T01:53:06.730Z,99987.66
2022-10-15T01:56:14.182Z,99983.41
2022-10-15T01:59:22.095Z,99985.88
2022-10-15T02:02:26.906Z,99982.44
2022-10-15T02:05:36.474Z,99973.63
2022-10-15T02:08:46.034Z,99967.28
2022-10-15T02:12:02.053Z,99968.25
2022-10-15T02:15:12.497Z,99964.13
2022-10-15T02:18:22.504Z,99956.97
2022-10-15T02:21:32.895Z,99958.91
2022-10-15T02:24:40.539Z,99954.38
2022-10-15T02:27:46.961Z,99944.84
2022-10-15T02:30:53.702Z,99948.84
2022-10-15T02:34:02.599Z,99950.06
2022-10-15T02:37:08.094Z,99956.00
2022-10-15T02:40:12.119Z,99952.41
2022-10-15T02:43:17.780Z,99949.66
2022-10-15T02:46:21.856Z,99946.38
2022-10-15T02:49:26.271Z,99940.00
2022-10-15T02:52:29.367Z,99941.41
2022-10-15T02:55:32.642Z,99935.09
2022-10-15T02:58:35.787Z,99930.81
2022-10-15T03:01:38.907Z,99935.91
2022-10-15T03:04:43.871Z,99941.28
2022-10-15T03:07:47.891Z,99937.53
2022-10-15T03:10:51.333Z,99939.91
2022-10-15T03:13:54.424Z,99932.63
2022-10-15T03:16:57.946Z,99927.38
2022-10-15T03:20:03.262Z,99940.97
2022-10-15T03:23:08.612Z,99936.72
2022-10-15T03:26:11.701Z,99936.44
2022-10-15T03:29:14.930Z,99926.00
2022-10-15T03:32:23.463Z,99913.84
2022-10-15T03:35:27.871Z,99911.00
2022-10-15T03:38:31.606Z,99916.66
2022-10-15T03:41:35.093Z,99919.72
2022-10-15T03:44:38.479Z,99917.00
2022-10-15T03:47:46.204Z,99915.75
2022-10-15T03:50:50.532Z,99921.66
2022-10-15T03:53:54.227Z,99919.72
2022-10-15T03:56:57.603Z,99917.00
2022-10-15T04:00:09.443Z,99925.09
2022-10-15T04:03:15.793Z,99915.31
2022-10-15T04:06:20.535Z,99919.72
2022-10-15T04:09:24.260Z,99920.41
2022-10-15T04:12:27.538Z,99921.91
2022-10-15T04:15:30.764Z,99915.59
2022-10-15T04:18:39.165Z,99916.97
2022-10-15T04:21:43.728Z,99915.84
2022-10-15T04:25:00.151Z,99925.09
2022-10-15T04:28:05.238Z,99927.00
2022-10-15T04:31:17.826Z,99925.63
2022-10-15T04:34:20.818Z,99925.66
2022-10-15T04:37:26.311Z,99927.44
2022-10-15T04:40:30.072Z,99926.06
2022-10-15T04:43:34.545Z,99922.34
2022-10-15T04:46:41.895Z,99921.66
2022-10-15T04:50:20.153Z,99931.81
2022-10-15T04:53:47.743Z,99926.06
2022-10-15T04:56:51.464Z,99928.25
2022-10-15T04:59:57.621Z,99928.53
2022-10-15T05:03:21.024Z,99933.63
2022-10-15T05:06:34.884Z,99934.44
2022-10-15T05:09:52.805Z,99932.94
2022-10-15T05:12:56.939Z,99930.72
2022-10-15T05:16:13.831Z,99926.59
2022-10-15T05:19:17.821Z,99932.50
2022-10-15T05:22:21.333Z,99935.66
2022-10-15T05:25:30.616Z,99923.56
2022-10-15T05:28:34.009Z,99926.03
2022-10-15T05:31:39.270Z,99926.53
2022-10-15T05:34:55.166Z,99924.38
2022-10-15T05:37:58.308Z,99933.47
2022-10-15T05:41:02.561Z,99934.84
2022-10-15T05:44:06.216Z,99943.63
2022-10-15T05:47:11.962Z,99942.81
2022-10-15T05:50:16.670Z,99939.78
2022-10-15T05:53:23.262Z,99937.16
2022-10-15T05:56:31.980Z,99946.63
2022-10-15T05:59:35.001Z,99940.31
2022-10-15T06:02:38.076Z,99949.22
2022-10-15T06:05:41.136Z,99948.56
2022-10-15T06:08:44.271Z,99957.06
2022-10-15T06:11:48.722Z,99956.50
2022-10-15T06:14:54.556Z,99962.41
2022-10-15T06:17:57.548Z,99963.13
2022-10-15T06:21:00.569Z,99956.78
2022-10-15T06:24:06.316Z,99963.34
2022-10-15T06:27:13.903Z,99975.19
2022-10-15T06:30:17.096Z,99968.88
2022-10-15T06:33:20.031Z,99968.56
2022-10-15T06:36:24.246Z,99966.19
2022-10-15T06:39:27.614Z,99969.38
2022-10-15T06:42:31.876Z,99959.69
2022-10-15T06:45:36.502Z,99977.34
2022-10-15T06:48:42.423Z,99967.84
2022-10-15T06:51:45.367Z,99976.44
2022-10-15T06:54:48.293Z,99982.38
2022-10-15T06:57:52.821Z,99986.34
2022-10-15T07:01:03.471Z,99983.16
2022-10-15T07:04:06.488Z,99988.91
2022-10-15T07:07:09.472Z,100003.00
2022-10-15T07:10:12.438Z,100012.25
2022-10-15T07:13:18.619Z,100016.84
2022-10-15T07:16:21.727Z,100012.81
2022-10-15T07:19:24.707Z,100022.84
2022-10-15T07:22:28.007Z,100028.56
2022-10-15T07:25:31.339Z,100025.75
2022-10-15T07:28:35.721Z,100028.34
2022-10-15T07:31:38.679Z,100010.78
2022-10-15T07:34:41.731Z,100012.97
2022-10-15T07:37:44.808Z,100012.81
2022-10-15T07:40:47.766Z,100004.91
2022-10-15T07:43:53.142Z,100005.91
2022-10-15T07:46:56.070Z,100010.75
2022-10-15T07:49:59.262Z,100009.19
2022-10-15T07:53:02.290Z,100016.91
2022-10-15T07:56:08.743Z,100014.13
2022-10-15T07:59:13.183Z,100011.94
2022-10-15T08:02:17.611Z,100016.22
2022-10-15T08:05:20.544Z,100025.84
2022-10-15T08:08:23.693Z,100028.47
2022-10-15T08:11:26.691Z,100034.44
2022-10-15T08:14:31.206Z,100040.22
2022-10-15T08:17:34.122Z,100060.34
2022-10-15T08:20:37.430Z,100060.78
2022-10-15T08:23:41.457Z,100071.31
2022-10-15T08:26:44.775Z,100087.41
2022-10-15T08:29:49.007Z,100095.03
2022-10-15T08:32:52.078Z,100109.75
2022-10-15T08:35:55.153Z,100117.81
2022-10-15T08:38:58.601Z,100123.66
2022-10-15T08:42:04.655Z,100145.50
2022-10-15T08:45:17.125Z,100145.59
2022-10-15T08:48:28.880Z,100155.28
2022-10-15T08:51:43.110Z,100157.13
2022-10-15T08:54:46.170Z,100167.25
2022-10-15T08:57:55.232Z,100166.31
2022-10-15T09:01:03.029Z,100179.28
2022-10-15T09:04:19.777Z,100188.63
2022-10-15T09:07:32.759Z,100191.25
2022-10-15T09:10:45.315Z,100195.88
2022-10-15T09:13:52.550Z,100197.22
2022-10-15T09:17:07.648Z,100205.13
2022-10-15T09:20:19.986Z,100211.72
2022-10-15T09:23:30.727Z,100208.44
2022-10-15T09:26:51.506Z,100201.09
2022-10-15T09:30:05.270Z,100195.38
2022-10-15T09:33:17.845Z,100204.97
2022-10-15T09:36:36.666Z,100205.44
2022-10-15T09:40:04.927Z,100209.66
2022-10-15T09:43:12.105Z,100230.06
2022-10-15T09:46:15.218Z,100245.38
2022-10-15T09:49:25.696Z,100247.41
2022-10-15T09:53:04.017Z,100260.09
2022-10-15T09:56:14.695Z,100266.03
2022-10-15T09:59:20.832Z,100264.69
2022-10-15T10:02:26.878Z,100253.16
2022-10-15T10:05:35.886Z,100258.44
2022-10-15T10:08:57.130Z,100261.06
2022-10-15T10:12:14.325Z,100260.91
2022-10-15T10:15:40.028Z,100258.78
2022-10-15T10:18:50.368Z,100276.03
2022-10-15T10:22:13.122Z,100284.44
2022-10-15T10:25:33.456Z,100276.25
2022-10-15T10:28:44.202Z,100281.66
2022-10-15T10:31:51.671Z,100281.72
2022-10-15T10:35:21.347Z,100280.22
2022-10-15T10:38:28.801Z,100287.63
2022-10-15T10:41:52.973Z,100290.75
2022-10-15T10:44:56.101Z,100298.00
2022-10-15T10:48:00.564Z,100302.09
2022-10-15T10:51:09.335Z,100293.50
2022-10-15T10:54:24.507Z,100311.78
2022-10-15T10:57:51.168Z,100322.00
2022-10-15T11:00:59.091Z,100323.28
2022-10-15T11:07:23.898Z,100336.66
2022-10-15T11:10:37.412Z,100330.56
2022-10-15T11:13:55.260Z,100331.53
2022-10-15T11:17:05.823Z,100337.47
2022-10-15T11:20:51.033Z,100325.28
2022-10-15T11:24:04.929Z,100330.00
2022-10-15T11:27:36.507Z,100332.94
2022-10-15T11:30:51.452Z,100323.09
2022-10-15T11:34:15.510Z,100321.94
2022-10-15T11:37:37.925Z,100317.94
2022-10-15T11:40:54.604Z,100320.72
2022-10-15T11:44:26.649Z,100314.53
2022-10-15T11:47:45.527Z,100323.59
2022-10-15T11:50:53.481Z,100322.75
2022-10-15T11:54:23.058Z,100329.19
2022-10-15T11:57:27.687Z,100335.81
2022-10-15T12:00:37.952Z,100340.53
2022-10-15T12:03:50.810Z,100322.78
2022-10-15T12:06:58.261Z,100320.16
2022-10-15T12:10:15.036Z,100326.91
2022-10-15T12:13:27.632Z,100328.56
2022-10-15T12:16:43.001Z,100336.97
2022-10-15T12:19:52.214Z,100330.63
2022-10-15T12:22:58.973Z,100335.75
2022-10-15T12:26:02.035Z,100327.59
2022-10-15T12:29:18.352Z,100331.72
2022-10-15T12:32:26.148Z,100329.72
2022-10-15T12:35:36.459Z,100333.94
2022-10-15T12:38:42.421Z,100333.84
2022-10-15T12:41:51.043Z,100333.31
2022-10-15T12:44:54.646Z,100340.50
2022-10-15T12:48:21.407Z,100332.97
2022-10-15T12:51:33.328Z,100335.16
2022-10-15T12:54:41.790Z,100328.72
2022-10-15T12:58:04.192Z,100325.41
2022-10-15T13:01:21.184Z,100323.22
2022-10-15T13:04:38.834Z,100323.41
2022-10-15T13:07:48.206Z,100327.88
2022-10-15T13:10:56.020Z,100312.84
2022-10-15T13:14:02.895Z,100317.03
2022-10-15T13:17:15.492Z,100315.97
2022-10-15T13:20:33.677Z,100316.88
2022-10-15T13:23:37.211Z,100303.19
2022-10-15T13:26:40.183Z,100309.59
2022-10-15T13:29:56.005Z,100311.09
2022-10-15T13:32:58.971Z,100308.78
2022-10-15T13:36:09.200Z,100315.28
2022-10-15T13:42:59.120Z,100305.88
2022-10-15T13:46:03.106Z,100300.94
2022-10-15T13:49:13.792Z,100305.72
2022-10-15T13:52:18.455Z,100309.50
2022-10-15T13:55:25.791Z,100308.84
2022-10-15T13:58:30.840Z,100307.53
2022-10-15T14:01:36.174Z,100302.56
2022-10-15T14:04:40.953Z,100308.09
2022-10-15T14:07:55.437Z,100316.38
2022-10-15T14:11:00.462Z,100309.94
2022-10-15T14:14:03.796Z,100313.75
2022-10-15T14:17:09.347Z,100314.09
2022-10-15T14:20:27.226Z,100326.22
2022-10-15T14:23:32.969Z,100324.28
2022-10-15T14:26:36.385Z,100321.41
2022-10-15T14:29:43.089Z,100320.66
2022-10-15T14:32:47.922Z,100315.91
2022-10-15T14:36:06.350Z,100314.78
2022-10-15T14:39:31.219Z,100302.25
2022-10-15T14:42:35.968Z,100307.50
2022-10-15T14:45:44.702Z,100301.88
2022-10-15T14:48:48.421Z,100307.16
2022-10-15T14:52:04.527Z,100307.28
2022-10-15T14:55:21.124Z,100309.97
2022-10-15T14:58:29.756Z,100309.47
2022-10-15T15:01:36.393Z,100306.50
2022-10-15T15:04:46.820Z,100298.63
2022-10-15T15:07:53.883Z,100292.56
2022-10-15T15:11:04.082Z,100297.50
2022-10-15T15:14:24.371Z,100295.69
2022-10-15T15:17:30.402Z,100292.22
2022-10-15T15:20:33.415Z,100297.84
2022-10-15T15:23:37.141Z,100294.75
2022-10-15T15:26:42.557Z,100287.78
2022-10-15T15:29:48.353Z,100287.47
2022-10-15T15:32:53.344Z,100289.47
2022-10-15T15:36:01.783Z,100285.34
2022-10-15T15:39:05.239Z,100284.84
2022-10-15T15:42:13.650Z,100280.72
2022-10-15T15:45:22.130Z,100281.88
2022-10-15T15:48:33.428Z,100274.75
2022-10-15T15:51:37.071Z,100270.63
2022-10-15T15:54:45.553Z,100263.19
2022-10-15T15:57:56.227Z,100249.50
2022-10-15T16:01:04.686Z,100248.69
2022-10-15T16:04:08.124Z,100260.69
2022-10-15T16:07:13.559Z,100261.63
2022-10-15T16:10:19.758Z,100255.38
2022-10-15T16:13:32.174Z,100261.22
2022-10-15T16:16:38.791Z,100260.81
2022-10-15T16:19:42.210Z,100251.59
2022-10-15T16:22:49.967Z,100255.50
2022-10-15T16:26:01.988Z,100258.09
2022-10-15T16:29:09.124Z,100260.66
2022-10-15T16:32:15.342Z,100252.44
2022-10-15T16:35:26.787Z,100240.19
2022-10-15T16:38:35.915Z,100244.34
2022-10-15T16:41:43.546Z,100233.69
2022-10-15T16:44:47.905Z,100235.88
2022-10-15T16:47:53.820Z,100235.13
2022-10-15T16:51:01.107Z,100238.31
2022-10-15T16:54:04.560Z,100223.22
2022-10-15T16:57:10.175Z,100229.44
2022-10-15T17:00:20.143Z,100233.66
2022-10-15T17:03:23.185Z,100233.28
2022-10-15T17:06:29.998Z,100241.00
2022-10-15T17:09:33.359Z,100240.94
2022-10-15T17:12:36.417Z,100232.91
2022-10-15T17:15:55.875Z,100232.91
2022-10-15T17:19:07.263Z,100235.88
2022-10-15T17:22:10.562Z,100247.53
2022-10-15T17:25:21.115Z,100237.78
2022-10-15T17:28:29.460Z,100239.31
2022-10-15T17:31:34.314Z,100240.63
2022-10-15T17:34:37.533Z,100240.25
2022-10-15T17:37:40.936Z,100250.63
2022-10-15T17:40:44.035Z,100243.94
2022-10-15T17:43:48.052Z,100236.81
2022-10-15T17:46:53.119Z,100235.72
2022-10-15T17:50:03.924Z,100235.34
2022-10-15T17:53:07.502Z,100224.03
2022-10-15T17:56:12.933Z,100223.56
2022-10-15T17:59:15.954Z,100217.34
2022-10-15T18:02:20.437Z,100208.25
2022-10-15T18:05:24.306Z,100196.66
2022-10-15T18:08:27.393Z,100201.03
2022-10-15T18:11:34.570Z,100204.31
2022-10-15T18:14:37.702Z,100198.50
2022-10-15T18:17:42.002Z,100202.63
2022-10-15T18:20:46.660Z,100205.69
2022-10-15T18:23:49.667Z,100208.88
2022-10-15T18:26:53.370Z,100207.09
2022-10-15T18:29:56.394Z,100208.88
2022-10-15T18:33:01.165Z,100214.13
2022-10-15T18:36:08.866Z,100209.56
2022-10-15T18:39:12.054Z,100205.44
2022-10-15T18:42:15.010Z,100211.13
2022-10-15T18:45:18.072Z,100224.78
2022-10-15T18:48:22.310Z,100226.44
2022-10-15T18:51:26.063Z,100217.75
2022-10-15T18:54:31.310Z,100218.97
2022-10-15T18:57:34.764Z,100223.13
2022-10-15T19:00:37.809Z,100214.78
2022-10-15T19:03:42.207Z,100207.31
2022-10-15T19:06:50.079Z,100210.50
2022-10-15T19:09:53.038Z,100210.88
2022-10-15T19:13:02.565Z,100198.91
2022-10-15T19:16:08.721Z,100202.03
2022-10-15T19:19:16.253Z,100212.06
2022-10-15T19:22:25.339Z,100213.97
2022-10-15T19:25:28.435Z,100223.56
2022-10-15T19:28:31.435Z,100232.78
2022-10-15T19:31:37.723Z,100232.22
2022-10-15T19:34:42.172Z,100223.56
2022-10-15T19:37:45.335Z,100220.03
2022-10-15T19:40:52.281Z,100225.41
2022-10-15T19:43:55.310Z,100218.59
2022-10-15T19:46:58.485Z,100218.31
2022-10-15T19:50:03.062Z,100225.75
2022-10-15T19:53:06.848Z,100219.34
2022-10-15T19:56:12.075Z,100226.94
2022-10-15T19:59:16.767Z,100226.63
2022-10-15T20:02:19.785Z,100233.41
2022-10-15T20:05:24.094Z,100237.50
2022-10-15T20:08:27.326Z,100249.06
2022-10-15T20:11:30.622Z,100256.91
2022-10-15T20:14:33.691Z,100265.47
2022-10-15T20:17:36.853Z,100285.50
2022-10-15T20:20:45.368Z,100286.63
2022-10-15T20:23:48.676Z,100290.47
2022-10-15T20:26:52.225Z,100291.56
2022-10-15T20:29:55.426Z,100288.78
2022-10-15T20:32:58.694Z,100283.69
2022-10-15T20:36:08.918Z,100296.66
2022-10-15T20:39:12.145Z,100297.94
2022-10-15T20:42:15.124Z,100313.81
2022-10-15T20:45:18.236Z,100313.94
2022-10-15T20:48:24.356Z,100317.97
2022-10-15T20:51:28.947Z,100334.44
2022-10-15T20:54:32.345Z,100332.50
2022-10-15T20:57:36.572Z,100347.44
2022-10-15T21:00:42.952Z,100338.50
2022-10-15T21:03:55.842Z,100332.88
2022-10-15T21:07:01.817Z,100333.09
2022-10-15T21:10:06.091Z,100332.28
2022-10-15T21:13:18.421Z,100347.03
2022-10-15T21:16:24.580Z,100343.34
2022-10-15T21:19:30.775Z,100345.00
2022-10-15T21:22:35.269Z,100351.25
2022-10-15T21:28:46.536Z,100341.72
2022-10-15T21:31:52.501Z,100340.94
2022-10-15T21:34:55.445Z,100333.19
2022-10-15T21:38:02.032Z,100335.56
2022-10-15T21:41:05.310Z,100332.25
2022-10-15T21:44:09.204Z,100332.00
2022-10-15T21:47:15.133Z,100330.47
2022-10-15T21:50:18.845Z,100334.34
2022-10-15T21:53:23.524Z,100327.72
2022-10-15T21:56:28.332Z,100333.22
2022-10-15T21:59:31.434Z,100339.41
2022-10-15T22:02:34.602Z,100336.38
2022-10-15T22:05:37.712Z,100332.41
2022-10-15T22:08:42.769Z,100340.53
2022-10-15T22:11:45.902Z,100341.88
2022-10-15T22:14:48.984Z,100342.88
2022-10-15T22:17:51.919Z,100338.31
2022-10-15T22:20:54.977Z,100340.66
2022-10-15T22:24:02.414Z,100341.09
2022-10-15T22:27:05.430Z,100340.53
2022-10-15T22:30:10.267Z,100342.34
2022-10-15T22:33:13.425Z,100338.31
2022-10-15T22:36:19.640Z,100334.88
2022-10-15T22:39:24.020Z,100319.19
2022-10-15T22:42:27.524Z,100317.94
2022-10-15T22:45:31.571Z,100320.00
2022-10-15T22:48:35.155Z,100315.59
2022-10-15T22:51:40.606Z,100319.72
2022-10-15T22:54:45.113Z,100327.72
2022-10-15T22:57:48.553Z,100321.09
2022-10-15T23:00:51.834Z,100324.00
2022-10-15T23:03:57.441Z,100320.09
2022-10-15T23:07:00.686Z,100320.94
2022-10-15T23:10:05.717Z,100334.25
2022-10-15T23:13:09.325Z,100337.69
2022-10-15T23:16:15.873Z,100337.00
2022-10-15T23:19:21.706Z,100346.91
2022-10-15T23:22:25.276Z,100345.91
2022-10-15T23:25:29.998Z,100352.34
2022-10-15T23:28:33.096Z,100349.88
2022-10-15T23:31:37.226Z,100346.69
2022-10-15T23:34:40.769Z,100346.44
2022-10-15T23:37:46.590Z,100354.00
2022-10-15T23:40:51.901Z,100338.38
2022-10-15T23:43:55.519Z,100336.47
2022-10-15T23:46:58.523Z,100334.56
2022-10-15T23:50:01.571Z,100337.59
2022-10-15T23:53:04.831Z,100330.72
2022-10-15T23:56:09.489Z,100329.34
2022-10-15T23:59:12.937Z,100329.91
